sensor_id;sensor_type;location;lat;lon;timestamp;temperature;humidity
5059;DHT22;2548;52.050;11.036;2022-08-18T00:02:27;18.90;99.90
5059;DHT22;2548;52.050;11.036;2022-08-18T00:04:55;18.80;99.90
5059;DHT22;2548;52.050;11.036;2022-08-18T00:07:26;18.60;99.90
5059;DHT22;2548;52.050;11.036;2022-08-18T00:09:54;18.50;99.90
5059;DHT22;2548;52.050;11.036;2022-08-18T00:12:26;18.50;99.90
5059;DHT22;2548;52.050;11.036;2022-08-18T00:14:55;18.50;99.90
5059;DHT22;2548;52.050;11.036;2022-08-18T00:17:23;18.50;99.90
5059;DHT22;2548;52.050;11.036;2022-08-18T00:19:51;18.50;99.90
5059;DHT22;2548;52.050;11.036;2022-08-18T00:22:20;18.50;99.90
5059;DHT22;2548;52.050;11.036;2022-08-18T00:24:49;18.50;99.90
5059;DHT22;2548;52.050;11.036;2022-08-18T00:27:18;18.40;99.90
5059;DHT22;2548;52.050;11.036;2022-08-18T00:29:46;18.40;99.90
5059;DHT22;2548;52.050;11.036;2022-08-18T00:32:16;18.30;99.90
5059;DHT22;2548;52.050;11.036;2022-08-18T00:34:43;18.20;99.90
5059;DHT22;2548;52.050;11.036;2022-08-18T00:37:12;18.10;99.90
5059;DHT22;2548;52.050;11.036;2022-08-18T00:39:39;18.10;99.90
5059;DHT22;2548;52.050;11.036;2022-08-18T00:42:18;18.00;99.90
5059;DHT22;2548;52.050;11.036;2022-08-18T00:44:46;17.90;99.90
5059;DHT22;2548;52.050;11.036;2022-08-18T00:47:14;17.80;99.90
5059;DHT22;2548;52.050;11.036;2022-08-18T00:49:43;17.80;99.90
5059;DHT22;2548;52.050;11.036;2022-08-18T00:52:14;17.80;99.90
5059;DHT22;2548;52.050;11.036;2022-08-18T00:54:44;17.80;99.90
5059;DHT22;2548;52.050;11.036;2022-08-18T00:57:12;18.00;99.90
5059;DHT22;2548;52.050;11.036;2022-08-18T00:59:47;18.10;99.90
5059;DHT22;2548;52.050;11.036;2022-08-18T01:02:18;18.10;99.90
5059;DHT22;2548;52.050;11.036;2022-08-18T01:04:51;18.10;99.90
5059;DHT22;2548;52.050;11.036;2022-08-18T01:07:25;18.10;99.90
5059;DHT22;2548;52.050;11.036;2022-08-18T01:09:56;18.20;99.90
5059;DHT22;2548;52.050;11.036;2022-08-18T01:12:25;18.20;99.90
5059;DHT22;2548;52.050;11.036;2022-08-18T01:14:53;18.20;99.90
5059;DHT22;2548;52.050;11.036;2022-08-18T01:17:23;18.20;99.90
5059;DHT22;2548;52.050;11.036;2022-08-18T01:20:10;18.20;99.90
5059;DHT22;2548;52.050;11.036;2022-08-18T01:22:59;18.30;99.90
5059;DHT22;2548;52.050;11.036;2022-08-18T01:25:30;18.30;99.90
5059;DHT22;2548;52.050;11.036;2022-08-18T01:28:16;18.30;99.90
5059;DHT22;2548;52.050;11.036;2022-08-18T01:30:47;18.30;99.90
5059;DHT22;2548;52.050;11.036;2022-08-18T01:33:15;18.30;99.90
5059;DHT22;2548;52.050;11.036;2022-08-18T01:35:44;18.40;99.90
5059;DHT22;2548;52.050;11.036;2022-08-18T01:38:15;18.40;99.90
5059;DHT22;2548;52.050;11.036;2022-08-18T01:40:44;18.50;99.90
5059;DHT22;2548;52.050;11.036;2022-08-18T01:43:12;18.60;99.90
5059;DHT22;2548;52.050;11.036;2022-08-18T01:45:39;18.60;99.90
5059;DHT22;2548;52.050;11.036;2022-08-18T01:48:08;18.70;99.90
5059;DHT22;2548;52.050;11.036;2022-08-18T01:50:36;18.70;99.90
5059;DHT22;2548;52.050;11.036;2022-08-18T01:53:07;18.60;99.90
5059;DHT22;2548;52.050;11.036;2022-08-18T01:55:40;18.60;99.90
5059;DHT22;2548;52.050;11.036;2022-08-18T01:58:09;18.60;99.90
5059;DHT22;2548;52.050;11.036;2022-08-18T02:00:37;18.50;99.90
5059;DHT22;2548;52.050;11.036;2022-08-18T02:03:09;18.50;99.90
5059;DHT22;2548;52.050;11.036;2022-08-18T02:05:40;18.50;99.90
5059;DHT22;2548;52.050;11.036;2022-08-18T02:08:09;18.60;99.90
5059;DHT22;2548;52.050;11.036;2022-08-18T02:10:38;18.60;99.90
5059;DHT22;2548;52.050;11.036;2022-08-18T02:13:07;18.60;99.90
5059;DHT22;2548;52.050;11.036;2022-08-18T02:15:35;18.60;99.90
5059;DHT22;2548;52.050;11.036;2022-08-18T02:18:02;18.60;99.90
5059;DHT22;2548;52.050;11.036;2022-08-18T02:20:30;18.60;99.90
5059;DHT22;2548;52.050;11.036;2022-08-18T02:22:57;18.60;99.90
5059;DHT22;2548;52.050;11.036;2022-08-18T02:25:24;18.50;99.90
5059;DHT22;2548;52.050;11.036;2022-08-18T02:30:24;18.50;99.90
5059;DHT22;2548;52.050;11.036;2022-08-18T02:32:52;18.50;99.90
5059;DHT22;2548;52.050;11.036;2022-08-18T02:35:21;18.50;99.90
5059;DHT22;2548;52.050;11.036;2022-08-18T02:37:49;18.40;99.90
5059;DHT22;2548;52.050;11.036;2022-08-18T02:40:17;18.40;99.90
5059;DHT22;2548;52.050;11.036;2022-08-18T02:42:45;18.40;99.90
5059;DHT22;2548;52.050;11.036;2022-08-18T02:45:13;18.40;99.90
5059;DHT22;2548;52.050;11.036;2022-08-18T02:47:42;18.30;99.90
5059;DHT22;2548;52.050;11.036;2022-08-18T02:50:11;18.30;99.90
5059;DHT22;2548;52.050;11.036;2022-08-18T02:52:39;18.30;99.90
5059;DHT22;2548;52.050;11.036;2022-08-18T02:55:07;18.20;99.90
5059;DHT22;2548;52.050;11.036;2022-08-18T02:57:35;18.20;99.90
5059;DHT22;2548;52.050;11.036;2022-08-18T03:00:03;18.20;99.90
5059;DHT22;2548;52.050;11.036;2022-08-18T03:02:31;18.20;99.90
5059;DHT22;2548;52.050;11.036;2022-08-18T03:05:00;18.20;99.90
5059;DHT22;2548;52.050;11.036;2022-08-18T03:07:27;18.20;99.90
5059;DHT22;2548;52.050;11.036;2022-08-18T03:09:55;18.20;99.90
5059;DHT22;2548;52.050;11.036;2022-08-18T03:12:22;18.20;99.90
5059;DHT22;2548;52.050;11.036;2022-08-18T03:14:49;18.20;99.90
5059;DHT22;2548;52.050;11.036;2022-08-18T03:17:17;18.20;99.90
5059;DHT22;2548;52.050;11.036;2022-08-18T03:19:44;18.10;99.90
5059;DHT22;2548;52.050;11.036;2022-08-18T03:22:13;18.10;99.90
5059;DHT22;2548;52.050;11.036;2022-08-18T03:24:41;18.10;99.90
5059;DHT22;2548;52.050;11.036;2022-08-18T03:27:09;18.10;99.90
5059;DHT22;2548;52.050;11.036;2022-08-18T03:29:37;18.00;99.90
5059;DHT22;2548;52.050;11.036;2022-08-18T03:32:06;18.00;99.90
5059;DHT22;2548;52.050;11.036;2022-08-18T03:34:34;17.90;99.90
5059;DHT22;2548;52.050;11.036;2022-08-18T03:37:01;17.90;99.90
5059;DHT22;2548;52.050;11.036;2022-08-18T03:39:30;17.90;99.90
5059;DHT22;2548;52.050;11.036;2022-08-18T03:41:57;18.00;99.90
5059;DHT22;2548;52.050;11.036;2022-08-18T03:44:26;18.00;99.90
5059;DHT22;2548;52.050;11.036;2022-08-18T03:46:54;18.00;99.90
5059;DHT22;2548;52.050;11.036;2022-08-18T03:49:22;18.00;99.90
5059;DHT22;2548;52.050;11.036;2022-08-18T03:51:49;18.00;99.90
5059;DHT22;2548;52.050;11.036;2022-08-18T03:54:17;18.00;99.90
5059;DHT22;2548;52.050;11.036;2022-08-18T03:56:47;18.10;99.90
5059;DHT22;2548;52.050;11.036;2022-08-18T03:59:20;18.00;99.90
5059;DHT22;2548;52.050;11.036;2022-08-18T04:01:52;18.00;99.90
5059;DHT22;2548;52.050;11.036;2022-08-18T04:04:22;18.00;99.90
5059;DHT22;2548;52.050;11.036;2022-08-18T04:06:52;18.00;99.90
5059;DHT22;2548;52.050;11.036;2022-08-18T04:09:21;18.00;99.90
5059;DHT22;2548;52.050;11.036;2022-08-18T04:11:51;17.90;99.90
5059;DHT22;2548;52.050;11.036;2022-08-18T04:14:20;17.90;99.90
5059;DHT22;2548;52.050;11.036;2022-08-18T04:16:49;17.90;99.90
5059;DHT22;2548;52.050;11.036;2022-08-18T04:19:17;17.80;99.90
5059;DHT22;2548;52.050;11.036;2022-08-18T04:21:45;17.80;99.90
5059;DHT22;2548;52.050;11.036;2022-08-18T04:24:14;17.70;99.90
5059;DHT22;2548;52.050;11.036;2022-08-18T04:26:44;17.70;99.90
5059;DHT22;2548;52.050;11.036;2022-08-18T04:29:14;17.70;99.90
5059;DHT22;2548;52.050;11.036;2022-08-18T04:31:42;17.70;99.90
5059;DHT22;2548;52.050;11.036;2022-08-18T04:34:10;17.70;99.90
5059;DHT22;2548;52.050;11.036;2022-08-18T04:36:39;17.80;99.90
5059;DHT22;2548;52.050;11.036;2022-08-18T04:39:08;17.90;99.90
5059;DHT22;2548;52.050;11.036;2022-08-18T04:41:39;17.90;99.90
5059;DHT22;2548;52.050;11.036;2022-08-18T04:44:07;18.00;99.90
5059;DHT22;2548;52.050;11.036;2022-08-18T04:46:39;18.00;99.90
5059;DHT22;2548;52.050;11.036;2022-08-18T04:49:07;17.90;99.90
5059;DHT22;2548;52.050;11.036;2022-08-18T04:51:35;17.90;99.90
5059;DHT22;2548;52.050;11.036;2022-08-18T04:54:06;17.80;99.90
5059;DHT22;2548;52.050;11.036;2022-08-18T04:56:36;17.90;99.90
5059;DHT22;2548;52.050;11.036;2022-08-18T04:59:06;18.00;99.90
5059;DHT22;2548;52.050;11.036;2022-08-18T05:01:37;18.00;99.90
5059;DHT22;2548;52.050;11.036;2022-08-18T05:04:05;18.00;99.90
5059;DHT22;2548;52.050;11.036;2022-08-18T05:06:34;18.00;99.90
5059;DHT22;2548;52.050;11.036;2022-08-18T05:09:04;18.00;99.90
5059;DHT22;2548;52.050;11.036;2022-08-18T05:11:33;18.00;99.90
5059;DHT22;2548;52.050;11.036;2022-08-18T05:14:03;18.10;99.90
5059;DHT22;2548;52.050;11.036;2022-08-18T05:16:31;18.20;99.90
5059;DHT22;2548;52.050;11.036;2022-08-18T05:19:03;18.30;99.90
5059;DHT22;2548;52.050;11.036;2022-08-18T05:21:32;18.30;99.90
5059;DHT22;2548;52.050;11.036;2022-08-18T05:24:02;18.40;99.90
5059;DHT22;2548;52.050;11.036;2022-08-18T05:26:31;18.40;99.90
5059;DHT22;2548;52.050;11.036;2022-08-18T05:28:58;18.40;99.90
5059;DHT22;2548;52.050;11.036;2022-08-18T05:31:27;18.40;99.90
5059;DHT22;2548;52.050;11.036;2022-08-18T05:33:55;18.40;99.90
5059;DHT22;2548;52.050;11.036;2022-08-18T05:36:45;18.40;99.90
5059;DHT22;2548;52.050;11.036;2022-08-18T05:39:23;18.40;99.90
5059;DHT22;2548;52.050;11.036;2022-08-18T05:41:54;18.50;99.90
5059;DHT22;2548;52.050;11.036;2022-08-18T05:44:25;18.60;99.90
5059;DHT22;2548;52.050;11.036;2022-08-18T05:46:55;18.60;99.90
5059;DHT22;2548;52.050;11.036;2022-08-18T05:49:24;18.70;99.90
5059;DHT22;2548;52.050;11.036;2022-08-18T05:51:56;18.80;99.90
5059;DHT22;2548;52.050;11.036;2022-08-18T05:54:28;18.90;99.90
5059;DHT22;2548;52.050;11.036;2022-08-18T05:57:19;19.00;99.90
5059;DHT22;2548;52.050;11.036;2022-08-18T05:59:51;19.10;99.90
5059;DHT22;2548;52.050;11.036;2022-08-18T06:02:28;19.20;99.90
5059;DHT22;2548;52.050;11.036;2022-08-18T06:05:00;19.30;99.90
5059;DHT22;2548;52.050;11.036;2022-08-18T06:07:36;19.40;99.90
5059;DHT22;2548;52.050;11.036;2022-08-18T06:10:08;19.50;99.90
5059;DHT22;2548;52.050;11.036;2022-08-18T06:12:39;19.60;99.90
5059;DHT22;2548;52.050;11.036;2022-08-18T06:15:13;19.70;99.90
5059;DHT22;2548;52.050;11.036;2022-08-18T06:18:10;19.80;99.90
5059;DHT22;2548;52.050;11.036;2022-08-18T06:23:41;20.00;99.90
5059;DHT22;2548;52.050;11.036;2022-08-18T06:26:17;20.10;99.90
5059;DHT22;2548;52.050;11.036;2022-08-18T06:28:56;20.10;99.90
5059;DHT22;2548;52.050;11.036;2022-08-18T06:31:34;20.20;99.90
5059;DHT22;2548;52.050;11.036;2022-08-18T06:34:14;20.40;99.90
5059;DHT22;2548;52.050;11.036;2022-08-18T06:36:48;20.50;99.90
5059;DHT22;2548;52.050;11.036;2022-08-18T06:39:25;20.60;99.90
5059;DHT22;2548;52.050;11.036;2022-08-18T06:41:54;20.70;99.90
5059;DHT22;2548;52.050;11.036;2022-08-18T06:44:31;20.80;99.90
5059;DHT22;2548;52.050;11.036;2022-08-18T06:47:04;20.90;99.90
5059;DHT22;2548;52.050;11.036;2022-08-18T06:49:38;21.00;99.90
5059;DHT22;2548;52.050;11.036;2022-08-18T06:52:34;21.00;99.90
5059;DHT22;2548;52.050;11.036;2022-08-18T06:55:06;21.10;99.90
5059;DHT22;2548;52.050;11.036;2022-08-18T06:57:36;21.20;99.90
5059;DHT22;2548;52.050;11.036;2022-08-18T07:00:08;21.30;99.90
5059;DHT22;2548;52.050;11.036;2022-08-18T07:02:44;21.40;99.90
5059;DHT22;2548;52.050;11.036;2022-08-18T07:05:22;21.40;99.90
5059;DHT22;2548;52.050;11.036;2022-08-18T07:08:05;21.50;99.90
5059;DHT22;2548;52.050;11.036;2022-08-18T07:10:38;21.50;99.90
5059;DHT22;2548;52.050;11.036;2022-08-18T07:13:22;21.60;99.90
5059;DHT22;2548;52.050;11.036;2022-08-18T07:15:53;21.70;99.90
5059;DHT22;2548;52.050;11.036;2022-08-18T07:18:24;21.70;99.90
5059;DHT22;2548;52.050;11.036;2022-08-18T07:20:53;21.80;99.90
5059;DHT22;2548;52.050;11.036;2022-08-18T07:23:25;22.00;99.90
5059;DHT22;2548;52.050;11.036;2022-08-18T07:26:08;22.10;99.90
5059;DHT22;2548;52.050;11.036;2022-08-18T07:28:39;22.10;99.90
5059;DHT22;2548;52.050;11.036;2022-08-18T07:31:17;22.00;99.90
5059;DHT22;2548;52.050;11.036;2022-08-18T07:33:53;22.00;99.90
5059;DHT22;2548;52.050;11.036;2022-08-18T07:36:26;22.00;99.90
5059;DHT22;2548;52.050;11.036;2022-08-18T07:38:59;21.90;99.90
5059;DHT22;2548;52.050;11.036;2022-08-18T07:41:33;21.90;99.90
5059;DHT22;2548;52.050;11.036;2022-08-18T07:44:09;22.00;99.90
5059;DHT22;2548;52.050;11.036;2022-08-18T07:46:43;22.00;99.90
5059;DHT22;2548;52.050;11.036;2022-08-18T07:49:17;22.10;99.90
5059;DHT22;2548;52.050;11.036;2022-08-18T07:51:48;22.10;99.90
5059;DHT22;2548;52.050;11.036;2022-08-18T07:54:23;22.10;99.90
5059;DHT22;2548;52.050;11.036;2022-08-18T07:57:01;22.20;99.90
5059;DHT22;2548;52.050;11.036;2022-08-18T07:59:36;22.20;99.90
5059;DHT22;2548;52.050;11.036;2022-08-18T08:02:18;22.40;99.90
5059;DHT22;2548;52.050;11.036;2022-08-18T08:04:58;22.40;99.90
5059;DHT22;2548;52.050;11.036;2022-08-18T08:07:33;22.50;99.90
5059;DHT22;2548;52.050;11.036;2022-08-18T08:12:59;22.60;99.90
5059;DHT22;2548;52.050;11.036;2022-08-18T08:15:39;22.80;99.90
5059;DHT22;2548;52.050;11.036;2022-08-18T08:18:13;22.90;99.90
5059;DHT22;2548;52.050;11.036;2022-08-18T08:20:46;23.00;99.90
5059;DHT22;2548;52.050;11.036;2022-08-18T08:23:24;23.10;99.90
5059;DHT22;2548;52.050;11.036;2022-08-18T08:26:05;23.10;99.90
5059;DHT22;2548;52.050;11.036;2022-08-18T08:28:42;23.30;99.90
5059;DHT22;2548;52.050;11.036;2022-08-18T08:31:18;23.50;99.90
5059;DHT22;2548;52.050;11.036;2022-08-18T08:33:52;23.70;99.90
5059;DHT22;2548;52.050;11.036;2022-08-18T08:36:25;23.90;99.90
5059;DHT22;2548;52.050;11.036;2022-08-18T08:38:57;24.00;99.90
5059;DHT22;2548;52.050;11.036;2022-08-18T08:41:31;24.10;99.90
5059;DHT22;2548;52.050;11.036;2022-08-18T08:44:08;24.20;99.90
5059;DHT22;2548;52.050;11.036;2022-08-18T08:46:42;24.30;99.90
5059;DHT22;2548;52.050;11.036;2022-08-18T08:49:23;24.30;99.90
5059;DHT22;2548;52.050;11.036;2022-08-18T08:51:55;24.40;99.90
5059;DHT22;2548;52.050;11.036;2022-08-18T08:54:29;24.30;99.90
5059;DHT22;2548;52.050;11.036;2022-08-18T08:56:59;24.30;99.90
5059;DHT22;2548;52.050;11.036;2022-08-18T08:59:29;24.40;99.90
5059;DHT22;2548;52.050;11.036;2022-08-18T09:02:05;24.40;99.90
5059;DHT22;2548;52.050;11.036;2022-08-18T09:04:42;24.30;99.90
5059;DHT22;2548;52.050;11.036;2022-08-18T09:10:33;24.50;99.90
5059;DHT22;2548;52.050;11.036;2022-08-18T09:13:17;24.60;99.90
5059;DHT22;2548;52.050;11.036;2022-08-18T09:16:08;24.70;99.90
5059;DHT22;2548;52.050;11.036;2022-08-18T09:18:47;24.80;99.90
5059;DHT22;2548;52.050;11.036;2022-08-18T09:23:49;24.70;99.90
5059;DHT22;2548;52.050;11.036;2022-08-18T09:26:26;24.70;99.90
5059;DHT22;2548;52.050;11.036;2022-08-18T09:29:14;24.70;99.90
5059;DHT22;2548;52.050;11.036;2022-08-18T09:31:44;24.70;99.90
5059;DHT22;2548;52.050;11.036;2022-08-18T09:34:32;24.60;99.90
5059;DHT22;2548;52.050;11.036;2022-08-18T09:37:13;24.50;99.90
5059;DHT22;2548;52.050;11.036;2022-08-18T09:39:52;24.50;99.90
5059;DHT22;2548;52.050;11.036;2022-08-18T09:42:42;24.60;99.90
5059;DHT22;2548;52.050;11.036;2022-08-18T09:48:29;24.60;99.90
5059;DHT22;2548;52.050;11.036;2022-08-18T09:51:33;24.60;99.90
5059;DHT22;2548;52.050;11.036;2022-08-18T09:54:08;24.70;99.90
5059;DHT22;2548;52.050;11.036;2022-08-18T10:03:12;24.80;99.90
5059;DHT22;2548;52.050;11.036;2022-08-18T10:06:04;25.00;99.90
5059;DHT22;2548;52.050;11.036;2022-08-18T10:14:42;25.20;99.90
5059;DHT22;2548;52.050;11.036;2022-08-18T10:17:29;25.30;99.90
5059;DHT22;2548;52.050;11.036;2022-08-18T10:20:06;25.30;99.90
5059;DHT22;2548;52.050;11.036;2022-08-18T10:22:44;25.30;99.90
5059;DHT22;2548;52.050;11.036;2022-08-18T10:25:14;25.40;99.90
5059;DHT22;2548;52.050;11.036;2022-08-18T10:27:57;25.50;99.90
5059;DHT22;2548;52.050;11.036;2022-08-18T10:33:59;25.70;99.90
5059;DHT22;2548;52.050;11.036;2022-08-18T10:36:40;25.70;99.90
5059;DHT22;2548;52.050;11.036;2022-08-18T10:39:13;25.60;99.90
5059;DHT22;2548;52.050;11.036;2022-08-18T10:42:02;25.50;99.90
5059;DHT22;2548;52.050;11.036;2022-08-18T10:44:33;25.50;99.90
5059;DHT22;2548;52.050;11.036;2022-08-18T10:47:02;25.60;99.90
5059;DHT22;2548;52.050;11.036;2022-08-18T10:49:31;25.60;99.90
5059;DHT22;2548;52.050;11.036;2022-08-18T10:58:15;25.70;99.90
5059;DHT22;2548;52.050;11.036;2022-08-18T11:00:56;25.90;99.90
5059;DHT22;2548;52.050;11.036;2022-08-18T11:03:41;26.00;99.90
5059;DHT22;2548;52.050;11.036;2022-08-18T11:06:17;26.00;99.90
5059;DHT22;2548;52.050;11.036;2022-08-18T11:08:47;26.10;99.90
5059;DHT22;2548;52.050;11.036;2022-08-18T11:11:23;26.00;99.90
5059;DHT22;2548;52.050;11.036;2022-08-18T11:13:59;26.00;99.90
5059;DHT22;2548;52.050;11.036;2022-08-18T11:16:38;25.90;99.90
5059;DHT22;2548;52.050;11.036;2022-08-18T11:19:14;25.90;99.90
5059;DHT22;2548;52.050;11.036;2022-08-18T11:21:44;25.90;99.90
5059;DHT22;2548;52.050;11.036;2022-08-18T11:24:15;25.90;99.90
5059;DHT22;2548;52.050;11.036;2022-08-18T11:26:47;26.00;99.90
5059;DHT22;2548;52.050;11.036;2022-08-18T11:29:25;26.00;99.90
5059;DHT22;2548;52.050;11.036;2022-08-18T11:31:57;26.00;99.90
5059;DHT22;2548;52.050;11.036;2022-08-18T11:34:33;25.90;99.90
5059;DHT22;2548;52.050;11.036;2022-08-18T11:37:03;25.80;99.90
5059;DHT22;2548;52.050;11.036;2022-08-18T11:39:32;25.70;99.90
5059;DHT22;2548;52.050;11.036;2022-08-18T11:42:01;25.70;99.90
5059;DHT22;2548;52.050;11.036;2022-08-18T11:44:29;25.60;99.90
5059;DHT22;2548;52.050;11.036;2022-08-18T11:47:12;25.60;99.90
5059;DHT22;2548;52.050;11.036;2022-08-18T11:49:51;25.60;99.90
5059;DHT22;2548;52.050;11.036;2022-08-18T11:52:23;25.50;99.90
5059;DHT22;2548;52.050;11.036;2022-08-18T11:54:51;25.50;99.90
5059;DHT22;2548;52.050;11.036;2022-08-18T11:57:40;25.40;99.90
5059;DHT22;2548;52.050;11.036;2022-08-18T12:00:36;25.40;99.90
5059;DHT22;2548;52.050;11.036;2022-08-18T12:03:05;25.40;99.90
5059;DHT22;2548;52.050;11.036;2022-08-18T12:05:42;25.40;99.90
5059;DHT22;2548;52.050;11.036;2022-08-18T12:08:19;25.40;99.90
5059;DHT22;2548;52.050;11.036;2022-08-18T12:10:59;25.40;99.90
5059;DHT22;2548;52.050;11.036;2022-08-18T12:13:29;25.30;99.90
5059;DHT22;2548;52.050;11.036;2022-08-18T12:16:09;25.30;99.90
5059;DHT22;2548;52.050;11.036;2022-08-18T12:18:37;25.30;99.90
5059;DHT22;2548;52.050;11.036;2022-08-18T12:21:05;25.20;99.90
5059;DHT22;2548;52.050;11.036;2022-08-18T12:23:35;25.30;99.90
5059;DHT22;2548;52.050;11.036;2022-08-18T12:26:03;25.30;99.90
5059;DHT22;2548;52.050;11.036;2022-08-18T12:28:32;25.30;99.90
5059;DHT22;2548;52.050;11.036;2022-08-18T12:31:00;25.30;99.90
5059;DHT22;2548;52.050;11.036;2022-08-18T12:33:27;25.30;99.90
5059;DHT22;2548;52.050;11.036;2022-08-18T12:35:55;25.20;99.90
5059;DHT22;2548;52.050;11.036;2022-08-18T12:38:23;25.20;99.90
5059;DHT22;2548;52.050;11.036;2022-08-18T12:40:51;25.20;99.90
5059;DHT22;2548;52.050;11.036;2022-08-18T12:43:19;25.20;99.90
5059;DHT22;2548;52.050;11.036;2022-08-18T12:45:48;25.20;99.90
5059;DHT22;2548;52.050;11.036;2022-08-18T12:48:16;25.20;99.90
5059;DHT22;2548;52.050;11.036;2022-08-18T12:50:44;25.30;99.90
5059;DHT22;2548;52.050;11.036;2022-08-18T12:53:11;25.30;99.90
5059;DHT22;2548;52.050;11.036;2022-08-18T12:55:42;25.40;99.90
5059;DHT22;2548;52.050;11.036;2022-08-18T12:58:10;25.40;99.90
5059;DHT22;2548;52.050;11.036;2022-08-18T13:00:37;25.30;99.90
5059;DHT22;2548;52.050;11.036;2022-08-18T13:03:08;25.30;99.90
5059;DHT22;2548;52.050;11.036;2022-08-18T13:05:35;25.40;99.90
5059;DHT22;2548;52.050;11.036;2022-08-18T13:08:06;25.40;99.90
5059;DHT22;2548;52.050;11.036;2022-08-18T13:10:35;25.50;99.90
5059;DHT22;2548;52.050;11.036;2022-08-18T13:13:03;25.50;99.90
5059;DHT22;2548;52.050;11.036;2022-08-18T13:15:31;25.50;99.90
5059;DHT22;2548;52.050;11.036;2022-08-18T13:17:58;25.50;99.90
5059;DHT22;2548;52.050;11.036;2022-08-18T13:20:29;25.50;99.90
5059;DHT22;2548;52.050;11.036;2022-08-18T13:22:57;25.50;99.90
5059;DHT22;2548;52.050;11.036;2022-08-18T13:25:24;25.50;99.90
5059;DHT22;2548;52.050;11.036;2022-08-18T13:27:52;25.50;99.90
5059;DHT22;2548;52.050;11.036;2022-08-18T13:30:21;25.50;99.90
5059;DHT22;2548;52.050;11.036;2022-08-18T13:32:49;25.50;99.90
5059;DHT22;2548;52.050;11.036;2022-08-18T13:35:17;25.50;99.90
5059;DHT22;2548;52.050;11.036;2022-08-18T13:37:46;25.50;99.90
5059;DHT22;2548;52.050;11.036;2022-08-18T13:40:14;25.60;99.90
5059;DHT22;2548;52.050;11.036;2022-08-18T13:42:44;25.50;99.90
5059;DHT22;2548;52.050;11.036;2022-08-18T13:45:13;25.50;99.90
5059;DHT22;2548;52.050;11.036;2022-08-18T13:47:41;25.60;99.90
5059;DHT22;2548;52.050;11.036;2022-08-18T13:50:10;25.70;99.90
5059;DHT22;2548;52.050;11.036;2022-08-18T13:52:39;25.70;99.90
5059;DHT22;2548;52.050;11.036;2022-08-18T13:55:13;25.70;99.90
5059;DHT22;2548;52.050;11.036;2022-08-18T13:57:42;25.70;99.90
5059;DHT22;2548;52.050;11.036;2022-08-18T14:00:15;25.70;99.90
5059;DHT22;2548;52.050;11.036;2022-08-18T14:02:45;25.60;99.90
5059;DHT22;2548;52.050;11.036;2022-08-18T14:05:15;25.60;99.90
5059;DHT22;2548;52.050;11.036;2022-08-18T14:07:43;25.60;99.90
5059;DHT22;2548;52.050;11.036;2022-08-18T14:10:13;25.60;99.90
5059;DHT22;2548;52.050;11.036;2022-08-18T14:12:41;25.50;99.90
5059;DHT22;2548;52.050;11.036;2022-08-18T14:15:13;25.50;99.90
5059;DHT22;2548;52.050;11.036;2022-08-18T14:17:41;25.40;99.90
5059;DHT22;2548;52.050;11.036;2022-08-18T14:20:10;25.40;99.90
5059;DHT22;2548;52.050;11.036;2022-08-18T14:22:57;25.40;99.90
5059;DHT22;2548;52.050;11.036;2022-08-18T14:25:44;25.40;99.90
5059;DHT22;2548;52.050;11.036;2022-08-18T14:28:30;25.40;99.90
5059;DHT22;2548;52.050;11.036;2022-08-18T14:30:59;25.40;99.90
5059;DHT22;2548;52.050;11.036;2022-08-18T14:33:29;25.40;99.90
5059;DHT22;2548;52.050;11.036;2022-08-18T14:35:57;25.40;99.90
5059;DHT22;2548;52.050;11.036;2022-08-18T14:38:25;25.50;99.90
5059;DHT22;2548;52.050;11.036;2022-08-18T14:40:54;25.60;99.90
5059;DHT22;2548;52.050;11.036;2022-08-18T14:43:22;25.50;99.90
5059;DHT22;2548;52.050;11.036;2022-08-18T14:45:50;25.50;99.90
5059;DHT22;2548;52.050;11.036;2022-08-18T14:48:19;25.50;99.90
5059;DHT22;2548;52.050;11.036;2022-08-18T14:50:49;25.50;99.90
5059;DHT22;2548;52.050;11.036;2022-08-18T14:53:22;25.50;99.90
5059;DHT22;2548;52.050;11.036;2022-08-18T14:55:51;25.50;99.90
5059;DHT22;2548;52.050;11.036;2022-08-18T14:58:21;25.50;99.90
5059;DHT22;2548;52.050;11.036;2022-08-18T15:00:49;25.50;99.90
5059;DHT22;2548;52.050;11.036;2022-08-18T15:03:17;25.40;99.90
5059;DHT22;2548;52.050;11.036;2022-08-18T15:05:45;25.40;99.90
5059;DHT22;2548;52.050;11.036;2022-08-18T15:08:12;25.40;99.90
5059;DHT22;2548;52.050;11.036;2022-08-18T15:10:41;25.30;99.90
5059;DHT22;2548;52.050;11.036;2022-08-18T15:13:10;25.30;99.90
5059;DHT22;2548;52.050;11.036;2022-08-18T15:15:39;25.30;99.90
5059;DHT22;2548;52.050;11.036;2022-08-18T15:18:07;25.20;99.90
5059;DHT22;2548;52.050;11.036;2022-08-18T15:20:35;25.20;99.90
5059;DHT22;2548;52.050;11.036;2022-08-18T15:23:23;25.00;99.90
5059;DHT22;2548;52.050;11.036;2022-08-18T15:26:09;25.00;99.90
5059;DHT22;2548;52.050;11.036;2022-08-18T15:28:36;24.80;99.90
5059;DHT22;2548;52.050;11.036;2022-08-18T15:31:06;24.80;99.90
5059;DHT22;2548;52.050;11.036;2022-08-18T15:33:33;24.80;99.90
5059;DHT22;2548;52.050;11.036;2022-08-18T15:36:01;24.80;99.90
5059;DHT22;2548;52.050;11.036;2022-08-18T15:38:30;24.80;99.90
5059;DHT22;2548;52.050;11.036;2022-08-18T15:40:59;24.80;99.90
5059;DHT22;2548;52.050;11.036;2022-08-18T15:43:29;24.80;99.90
5059;DHT22;2548;52.050;11.036;2022-08-18T15:45:57;24.90;99.90
5059;DHT22;2548;52.050;11.036;2022-08-18T15:48:27;24.90;99.90
5059;DHT22;2548;52.050;11.036;2022-08-18T15:50:55;25.00;99.90
5059;DHT22;2548;52.050;11.036;2022-08-18T15:53:24;25.10;99.90
5059;DHT22;2548;52.050;11.036;2022-08-18T15:55:52;25.20;99.90
5059;DHT22;2548;52.050;11.036;2022-08-18T15:58:20;25.20;99.90
5059;DHT22;2548;52.050;11.036;2022-08-18T16:00:48;25.20;99.90
5059;DHT22;2548;52.050;11.036;2022-08-18T16:03:17;25.20;99.90
5059;DHT22;2548;52.050;11.036;2022-08-18T16:05:49;25.20;99.90
5059;DHT22;2548;52.050;11.036;2022-08-18T16:08:19;25.30;99.90
5059;DHT22;2548;52.050;11.036;2022-08-18T16:10:47;25.30;99.90
5059;DHT22;2548;52.050;11.036;2022-08-18T16:13:15;25.40;99.90
5059;DHT22;2548;52.050;11.036;2022-08-18T16:15:45;25.40;99.90
5059;DHT22;2548;52.050;11.036;2022-08-18T16:18:17;25.50;99.90
5059;DHT22;2548;52.050;11.036;2022-08-18T16:20:47;25.40;99.90
5059;DHT22;2548;52.050;11.036;2022-08-18T16:23:15;25.40;99.90
5059;DHT22;2548;52.050;11.036;2022-08-18T16:25:43;25.30;99.90
5059;DHT22;2548;52.050;11.036;2022-08-18T16:28:11;25.20;99.90
5059;DHT22;2548;52.050;11.036;2022-08-18T16:30:39;25.10;99.90
5059;DHT22;2548;52.050;11.036;2022-08-18T16:33:07;25.00;99.90
5059;DHT22;2548;52.050;11.036;2022-08-18T16:35:34;25.00;99.90
5059;DHT22;2548;52.050;11.036;2022-08-18T16:38:05;24.90;99.90
5059;DHT22;2548;52.050;11.036;2022-08-18T16:40:34;24.80;99.90
5059;DHT22;2548;52.050;11.036;2022-08-18T16:43:02;24.60;99.90
5059;DHT22;2548;52.050;11.036;2022-08-18T16:45:30;24.50;99.90
5059;DHT22;2548;52.050;11.036;2022-08-18T16:47:59;24.50;99.90
5059;DHT22;2548;52.050;11.036;2022-08-18T16:50:28;24.40;99.90
5059;DHT22;2548;52.050;11.036;2022-08-18T16:52:56;24.30;99.90
5059;DHT22;2548;52.050;11.036;2022-08-18T16:55:26;24.20;99.90